Communia, Iowa
Current Conditions -  °F | °C
As of 12:15 PM on Friday 24 Oct 2014 (Local Time) from KPDC Reporting Station
Clear Clear  
Wind Chill: 60°   Ceiling: Unl
Heat Index: 60°   Visibility: 10mi
Dew Point: 53°   Wind: 6mph
Humidity: 77%   Direction: 130°SE
Pressure: 29.97"   Gusts: NA
Location:  42.8388°N, 91.4421°W
Report Text: KPDC 241715Z AUTO 13005KT 10SM CLR 16/12 A2997 RMK AO2 T01550115
Loading
Personal Weather Stations






























Interactive Weather Map
Tropical Storm Tracking
New forecast layout! Learn more

10-Day Weather Forecast

Advertisements
Track Severe Weather on mobile